Terminal Aerodrome Forecast
Issued by NWS

Current Version | Previous Version | Text Only | Print | Product List | Glossary On
Versions: 1 2 3 4 5 6 7 8 9 10 11 12 13 14 15 16 17 18 19 20 21 22
833 FTUS41 KGYX 302321 TAFLEB TAF KLEB 302321Z 0100/0124 VRB03KT P6SM SCT200 FM010900 00000KT 4SM BR BKN250 FM011200 19006KT P6SM SCT100 BKN250 FM012000 18008KT P6SM -TSRA OVC050CB=

USA.gov is the U.S. government's official web portal to all federal, state and local government web resources and services.